Chattahoochee, Florida
Current Conditions -  °F | °C
As of 6:15 AM on Tuesday 21 Oct 2014 (Local Time) from K2J9 Reporting Station
Overcast Overcast  
Wind Chill: 55°   Ceiling: 3700
Heat Index: 55°   Visibility: 7mi
Dew Point: 55°   Wind: 0mph
Humidity: 100%   Direction: NA
Pressure: 30"   Gusts: NA
Location:  30.71°N, 84.84°W
Report Text: K2J9 211015Z AUTO 00000KT 7SM OVC037 13/13 A3000 RMK AO1
Loading
Personal Weather Stations






























Interactive Weather Map
Tropical Storm Tracking
New forecast layout! Learn more

10-Day Weather Forecast

Advertisements
Track Severe Weather on mobile